createdAt,value
2019-05-05T00:01:38.779Z,10.60
2019-05-05T00:04:46.535Z,17.30
2019-05-05T00:07:22.709Z,11.90
2019-05-05T00:09:55.129Z,12.00
2019-05-05T00:13:00.520Z,18.37
2019-05-05T00:15:49.337Z,12.23
2019-05-05T00:18:25.287Z,14.00
2019-05-05T00:20:56.364Z,14.87
2019-05-05T00:23:27.441Z,8.90
2019-05-05T00:25:59.901Z,10.93
2019-05-05T00:28:30.930Z,18.70
2019-05-05T00:31:01.895Z,15.27
2019-05-05T00:33:34.373Z,19.30
2019-05-05T00:36:07.855Z,17.43
2019-05-05T00:38:38.569Z,14.80
2019-05-05T00:41:09.563Z,15.53
2019-05-05T00:43:40.584Z,14.23
2019-05-05T00:46:18.397Z,13.17
2019-05-05T00:48:49.550Z,14.20
2019-05-05T00:51:20.664Z,9.80
2019-05-05T00:53:51.652Z,15.73
2019-05-05T00:56:24.911Z,14.73
2019-05-05T00:59:00.652Z,11.50
2019-05-05T01:01:59.646Z,16.33
2019-05-05T01:04:38.763Z,14.40
2019-05-05T01:07:09.865Z,16.23
2019-05-05T01:09:42.479Z,13.53
2019-05-05T01:12:14.969Z,12.53
2019-05-05T01:14:47.100Z,15.03
2019-05-05T01:17:18.143Z,11.93
2019-05-05T01:20:01.271Z,16.07
2019-05-05T01:22:22.363Z,14.73
2019-05-05T01:24:55.468Z,15.47
2019-05-05T01:27:26.592Z,15.53
2019-05-05T01:29:57.646Z,17.10
2019-05-05T01:32:35.077Z,18.20
2019-05-05T01:35:06.373Z,9.97
2019-05-05T01:37:55.150Z,17.20
2019-05-05T01:40:38.516Z,14.13
2019-05-05T01:43:10.692Z,16.10
2019-05-05T01:45:41.886Z,17.80
2019-05-05T01:48:14.293Z,17.20
2019-05-05T01:50:46.344Z,15.43
2019-05-05T01:53:17.390Z,13.10
2019-05-05T01:55:48.921Z,17.27
2019-05-05T01:58:20.603Z,20.83
2019-05-05T02:00:51.571Z,12.90
2019-05-05T02:03:24.411Z,17.97
2019-05-05T02:05:56.786Z,13.57
2019-05-05T02:08:27.898Z,16.20
2019-05-05T02:10:59.165Z,19.27
2019-05-05T02:13:30.236Z,20.63
2019-05-05T02:16:01.201Z,19.70
2019-05-05T02:18:34.381Z,12.23
2019-05-05T02:21:06.835Z,17.80
2019-05-05T02:23:38.529Z,21.50
2019-05-05T02:26:10.162Z,14.73
2019-05-05T02:28:48.183Z,19.50
2019-05-05T02:31:36.118Z,17.00
2019-05-05T02:34:09.167Z,22.93
2019-05-05T02:36:40.443Z,14.43
2019-05-05T02:39:12.378Z,14.47
2019-05-05T02:41:45.223Z,15.97
2019-05-05T02:44:16.834Z,16.63
2019-05-05T02:46:55.326Z,18.10
2019-05-05T02:49:26.630Z,25.00
2019-05-05T02:51:58.253Z,17.70
2019-05-05T02:54:30.963Z,15.97
2019-05-05T02:57:04.628Z,18.43
2019-05-05T02:59:43.642Z,17.83
2019-05-05T03:02:18.230Z,14.40
2019-05-05T03:04:49.331Z,19.60
2019-05-05T03:07:25.043Z,19.17
2019-05-05T03:09:58.356Z,17.57
2019-05-05T03:12:31.669Z,18.07
2019-05-05T03:15:05.294Z,19.00
2019-05-05T03:17:36.836Z,24.23
2019-05-05T03:20:08.996Z,20.33
2019-05-05T03:22:40.617Z,16.63
2019-05-05T03:25:13.485Z,15.63
2019-05-05T03:27:44.630Z,16.17
2019-05-05T03:30:16.379Z,15.10
2019-05-05T03:32:47.701Z,16.27
2019-05-05T03:35:19.079Z,16.10
2019-05-05T03:37:50.192Z,18.83
2019-05-05T03:40:25.765Z,17.87
2019-05-05T03:43:04.094Z,25.07
2019-05-05T03:45:53.902Z,13.53
2019-05-05T03:48:25.464Z,15.33
2019-05-05T03:50:56.563Z,17.17
2019-05-05T03:53:28.024Z,16.60
2019-05-05T03:55:59.661Z,17.00
2019-05-05T03:58:31.105Z,17.63
2019-05-05T04:01:40.763Z,16.47
2019-05-05T04:04:44.136Z,14.53
2019-05-05T04:07:15.441Z,17.87
2019-05-05T04:09:46.567Z,17.20
2019-05-05T04:12:18.421Z,13.57
2019-05-05T04:14:50.786Z,17.50
2019-05-05T04:17:49.512Z,16.90
2019-05-05T04:20:45.443Z,12.10
2019-05-05T04:23:16.410Z,14.00
2019-05-05T04:25:47.386Z,16.70
2019-05-05T04:28:18.379Z,19.70
2019-05-05T04:30:49.373Z,18.83
2019-05-05T04:33:20.334Z,11.57
2019-05-05T04:35:51.315Z,14.67
2019-05-05T04:38:24.239Z,15.27
2019-05-05T04:40:55.048Z,18.40
2019-05-05T04:43:26.048Z,24.33
2019-05-05T04:45:57.100Z,16.13
2019-05-05T04:48:34.972Z,19.60
2019-05-05T04:51:13.763Z,15.23
2019-05-05T04:54:03.767Z,16.80
2019-05-05T04:56:36.489Z,20.03
2019-05-05T04:59:07.528Z,17.20
2019-05-05T05:01:38.578Z,18.83
2019-05-05T05:04:20.330Z,18.07
2019-05-05T05:06:54.250Z,18.10
2019-05-05T05:09:25.404Z,19.30
2019-05-05T05:11:56.545Z,20.30
2019-05-05T05:14:27.581Z,28.07
2019-05-05T05:17:00.297Z,18.70
2019-05-05T05:19:33.400Z,18.77
2019-05-05T05:22:04.964Z,19.17
2019-05-05T05:24:36.145Z,19.30
2019-05-05T05:27:07.144Z,21.47
2019-05-05T05:29:38.200Z,19.00
2019-05-05T05:32:09.205Z,20.60
2019-05-05T05:34:40.294Z,17.90
2019-05-05T05:37:13.411Z,21.93
2019-05-05T05:39:50.072Z,17.50
2019-05-05T05:42:21.164Z,20.70
2019-05-05T05:45:19.075Z,19.60
2019-05-05T05:48:04.103Z,18.57
2019-05-05T05:50:39.535Z,23.43
2019-05-05T05:53:10.520Z,22.17
2019-05-05T05:55:41.549Z,24.10
2019-05-05T05:58:14.078Z,21.67
2019-05-05T06:00:45.616Z,22.00
2019-05-05T06:03:16.627Z,20.47
2019-05-05T06:05:47.595Z,18.73
2019-05-05T06:08:18.597Z,23.60
2019-05-05T06:10:49.608Z,24.07
2019-05-05T06:13:20.585Z,28.80
2019-05-05T06:15:53.416Z,24.97
2019-05-05T06:18:24.506Z,21.37
2019-05-05T06:20:55.492Z,21.70
2019-05-05T06:23:26.502Z,25.20
2019-05-05T06:25:57.562Z,22.07
2019-05-05T06:28:28.587Z,23.23
2019-05-05T06:30:59.579Z,20.27
2019-05-05T06:33:30.559Z,29.30
2019-05-05T06:36:03.610Z,22.40
2019-05-05T06:38:34.686Z,23.33
2019-05-05T06:41:27.854Z,29.37
2019-05-05T06:44:06.997Z,23.10
2019-05-05T06:46:59.971Z,29.13
2019-05-05T06:49:31.436Z,31.13
2019-05-05T06:52:04.241Z,26.57
2019-05-05T06:54:35.390Z,27.90
2019-05-05T06:57:06.523Z,28.33
2019-05-05T06:59:37.595Z,27.60
2019-05-05T07:02:08.965Z,19.77
2019-05-05T07:04:40.015Z,24.40
2019-05-05T07:07:11.008Z,23.57
2019-05-05T07:09:44.098Z,24.33
2019-05-05T07:12:15.929Z,29.07
2019-05-05T07:14:47.013Z,24.33
2019-05-05T07:17:18.018Z,23.00
2019-05-05T07:19:49.962Z,24.83
2019-05-05T07:22:20.939Z,20.87
2019-05-05T07:24:54.043Z,22.70
2019-05-05T07:27:24.804Z,25.93
2019-05-05T07:29:55.786Z,21.30
2019-05-05T07:32:27.004Z,21.90
2019-05-05T07:35:05.751Z,26.77
2019-05-05T07:37:36.731Z,23.20
2019-05-05T07:40:08.560Z,24.17
2019-05-05T07:42:39.548Z,22.30
2019-05-05T07:45:20.295Z,22.53
2019-05-05T07:47:45.729Z,20.40
2019-05-05T07:50:28.552Z,27.30
2019-05-05T07:52:49.648Z,23.90
2019-05-05T07:55:20.731Z,22.00
2019-05-05T07:57:53.664Z,20.03
2019-05-05T08:00:24.442Z,21.60
2019-05-05T08:02:55.426Z,25.37
2019-05-05T08:05:26.556Z,15.97
2019-05-05T08:07:57.526Z,19.90
2019-05-05T08:10:28.654Z,21.83
2019-05-05T08:13:00.723Z,18.97
2019-05-05T08:15:31.698Z,18.87
2019-05-05T08:18:25.497Z,21.23
2019-05-05T08:20:58.883Z,19.40
2019-05-05T08:23:49.146Z,14.90
2019-05-05T08:26:38.086Z,20.23
2019-05-05T08:29:26.911Z,17.80
2019-05-05T08:32:26.108Z,15.37
2019-05-05T08:35:00.814Z,14.97
2019-05-05T08:37:29.917Z,16.30
2019-05-05T08:40:00.888Z,13.03
2019-05-05T08:42:33.897Z,18.23
2019-05-05T08:45:05.486Z,19.67
2019-05-05T08:47:36.537Z,15.33
2019-05-05T08:50:08.070Z,20.00
2019-05-05T08:52:40.133Z,17.40
2019-05-05T08:55:13.972Z,21.03
2019-05-05T08:57:45.362Z,13.20
2019-05-05T09:00:17.241Z,17.40
2019-05-05T09:02:48.484Z,20.37
2019-05-05T09:05:19.674Z,16.50
2019-05-05T09:07:50.657Z,13.67
2019-05-05T09:10:23.681Z,13.23
2019-05-05T09:12:54.462Z,12.90
2019-05-05T09:15:25.584Z,14.23
2019-05-05T09:17:56.599Z,12.33
2019-05-05T09:20:27.595Z,11.93
2019-05-05T09:22:59.739Z,11.27
2019-05-05T09:25:49.716Z,12.70
2019-05-05T09:28:28.207Z,12.30
2019-05-05T09:30:59.186Z,15.03
2019-05-05T09:33:30.152Z,10.33
2019-05-05T09:36:01.386Z,13.33
2019-05-05T09:38:34.491Z,11.63
2019-05-05T09:41:05.439Z,14.67
2019-05-05T09:43:36.408Z,9.37
2019-05-05T09:46:07.442Z,10.73
2019-05-05T09:48:38.419Z,13.43
2019-05-05T09:51:09.477Z,13.23
2019-05-05T09:53:41.591Z,12.40
2019-05-05T09:56:14.509Z,14.00
2019-05-05T09:58:45.316Z,11.73
2019-05-05T10:01:16.502Z,13.20
2019-05-05T10:03:47.481Z,10.83
2019-05-05T10:06:18.510Z,10.13
2019-05-05T10:08:49.539Z,9.20
2019-05-05T10:11:20.777Z,13.90
2019-05-05T10:13:51.783Z,13.20
2019-05-05T10:16:23.559Z,9.97
2019-05-05T10:18:54.795Z,10.53
2019-05-05T10:21:25.765Z,12.33
2019-05-05T10:23:58.463Z,9.50
2019-05-05T10:26:29.496Z,12.60
2019-05-05T10:29:01.253Z,10.67
2019-05-05T10:31:34.486Z,12.40
2019-05-05T10:34:07.123Z,10.80
2019-05-05T10:36:38.235Z,12.00
2019-05-05T10:39:15.990Z,10.40
2019-05-05T10:41:46.957Z,9.77
2019-05-05T10:44:17.922Z,12.87
2019-05-05T10:46:48.981Z,11.93
2019-05-05T10:49:20.122Z,9.07
2019-05-05T10:51:51.155Z,11.83
2019-05-05T10:54:23.680Z,14.40
2019-05-05T10:56:54.938Z,13.73
2019-05-05T10:59:26.050Z,10.13
2019-05-05T11:01:57.001Z,8.50
2019-05-05T11:04:28.197Z,13.33
2019-05-05T11:06:59.351Z,10.13
2019-05-05T11:09:30.578Z,9.70
2019-05-05T11:12:01.535Z,11.83
2019-05-05T11:14:33.678Z,22.07
2019-05-05T11:17:05.018Z,10.77
2019-05-05T11:19:36.088Z,11.67
2019-05-05T11:22:07.142Z,11.47
2019-05-05T11:24:38.144Z,9.77
2019-05-05T11:27:09.176Z,11.47
2019-05-05T11:29:59.086Z,15.33
2019-05-05T11:32:47.873Z,11.83
2019-05-05T11:35:20.929Z,9.77
2019-05-05T11:37:54.239Z,17.60
2019-05-05T11:40:34.459Z,12.47
2019-05-05T11:43:05.592Z,12.60
2019-05-05T11:45:36.656Z,14.80
2019-05-05T11:48:07.711Z,17.80
2019-05-05T11:50:38.676Z,19.17
2019-05-05T11:53:09.653Z,24.83
2019-05-05T11:55:40.632Z,17.77
2019-05-05T11:58:11.589Z,16.33
2019-05-05T12:00:43.878Z,21.37
2019-05-05T12:03:15.370Z,17.63
2019-05-05T12:05:46.360Z,17.50
2019-05-05T12:08:17.365Z,20.17
2019-05-05T12:10:54.254Z,18.30
2019-05-05T12:13:26.035Z,15.73
2019-05-05T12:16:01.777Z,16.63
2019-05-05T12:18:34.320Z,17.90
2019-05-05T12:21:06.486Z,16.30
2019-05-05T12:23:38.419Z,12.50
2019-05-05T12:26:31.527Z,11.53
2019-05-05T12:29:05.750Z,10.50
2019-05-05T12:31:39.137Z,11.20
2019-05-05T12:34:10.171Z,9.73
2019-05-05T12:36:41.160Z,10.40
2019-05-05T12:39:14.423Z,6.63
2019-05-05T12:41:45.527Z,7.33
2019-05-05T12:44:23.690Z,7.67
2019-05-05T12:47:23.638Z,8.43
2019-05-05T12:49:54.782Z,10.93
2019-05-05T12:52:25.912Z,7.40
2019-05-05T12:54:56.865Z,6.63
2019-05-05T12:57:27.855Z,8.50
2019-05-05T12:59:58.814Z,6.10
2019-05-05T13:02:29.808Z,6.90
2019-05-05T13:05:00.814Z,7.30
2019-05-05T13:07:33.691Z,7.97
2019-05-05T13:10:05.932Z,8.10
2019-05-05T13:12:38.374Z,8.90
2019-05-05T13:15:09.530Z,8.20
2019-05-05T13:17:40.644Z,7.63
2019-05-05T13:20:18.296Z,7.87
2019-05-05T13:23:10.729Z,7.70
2019-05-05T13:25:55.954Z,8.70
2019-05-05T13:28:24.128Z,7.40
2019-05-05T13:30:55.134Z,8.03
2019-05-05T13:33:26.122Z,6.73
2019-05-05T13:35:57.103Z,8.13
2019-05-05T13:38:28.103Z,7.90
2019-05-05T13:40:59.148Z,7.40
2019-05-05T13:43:30.117Z,9.73
2019-05-05T13:46:10.217Z,6.63
2019-05-05T13:48:41.267Z,10.20
2019-05-05T13:51:14.606Z,13.13
2019-05-05T13:53:45.583Z,9.60
2019-05-05T13:56:17.620Z,11.63
2019-05-05T13:58:48.699Z,14.50
2019-05-05T14:01:19.834Z,20.00
2019-05-05T14:03:50.904Z,17.30
2019-05-05T14:06:24.141Z,16.27
2019-05-05T14:08:55.014Z,20.17
2019-05-05T14:11:25.980Z,23.30
2019-05-05T14:13:57.270Z,16.20
2019-05-05T14:16:28.271Z,13.70
2019-05-05T14:18:59.670Z,14.33
2019-05-05T14:21:33.816Z,17.03
2019-05-05T14:24:29.591Z,11.70
2019-05-05T14:27:00.720Z,10.87
2019-05-05T14:29:43.886Z,12.37
2019-05-05T14:32:17.123Z,11.30
2019-05-05T14:34:54.692Z,13.30
2019-05-05T14:37:34.002Z,11.60
2019-05-05T14:40:05.913Z,9.37
2019-05-05T14:42:36.977Z,8.83
2019-05-05T14:45:08.468Z,11.93
2019-05-05T14:47:39.528Z,9.77
2019-05-05T14:50:10.783Z,12.03
2019-05-05T14:52:41.765Z,8.70
2019-05-05T14:55:14.089Z,8.00
2019-05-05T14:57:45.166Z,10.10
2019-05-05T15:00:19.581Z,8.90
2019-05-05T15:02:50.926Z,10.37
2019-05-05T15:05:39.773Z,12.60
2019-05-05T15:08:18.899Z,9.00
2019-05-05T15:11:10.921Z,9.13
2019-05-05T15:13:43.738Z,11.00
2019-05-05T15:16:14.892Z,10.03
2019-05-05T15:18:45.950Z,9.40
2019-05-05T15:21:16.967Z,9.70
2019-05-05T15:23:47.926Z,8.70
2019-05-05T15:26:18.914Z,8.07
2019-05-05T15:28:59.273Z,8.00
2019-05-05T15:31:23.830Z,17.30
2019-05-05T15:33:54.920Z,7.20
2019-05-05T15:36:26.191Z,8.93
2019-05-05T15:38:57.409Z,7.13
2019-05-05T15:41:28.703Z,8.13
2019-05-05T15:43:59.762Z,7.70
2019-05-05T15:46:30.771Z,8.57
2019-05-05T15:49:01.812Z,7.17
2019-05-05T15:51:34.343Z,8.07
2019-05-05T15:54:05.643Z,7.27
2019-05-05T15:56:36.656Z,7.40
2019-05-05T15:59:07.614Z,8.90
2019-05-05T16:01:38.604Z,14.13
2019-05-05T16:04:09.711Z,7.80
2019-05-05T16:06:40.731Z,7.53
2019-05-05T16:09:13.615Z,6.77
2019-05-05T16:11:46.809Z,6.60
2019-05-05T16:14:17.166Z,6.20
2019-05-05T16:17:00.068Z,8.63
2019-05-05T16:19:39.096Z,9.50
2019-05-05T16:22:14.544Z,7.30
2019-05-05T16:24:47.713Z,7.20
2019-05-05T16:27:22.125Z,6.70
2019-05-05T16:29:51.387Z,6.47
2019-05-05T16:32:24.817Z,6.73
2019-05-05T16:34:55.280Z,7.40
2019-05-05T16:37:26.313Z,11.30
2019-05-05T16:39:57.360Z,6.60
2019-05-05T16:42:28.402Z,6.50
2019-05-05T16:44:59.369Z,6.87
2019-05-05T16:47:30.379Z,8.70
2019-05-05T16:50:01.353Z,6.53
2019-05-05T16:52:37.290Z,8.33
2019-05-05T16:55:18.419Z,6.97
2019-05-05T16:57:49.570Z,6.83
2019-05-05T17:00:21.745Z,6.80
2019-05-05T17:02:54.313Z,7.17
2019-05-05T17:05:25.344Z,6.70
2019-05-05T17:07:58.444Z,6.17
2019-05-05T17:10:29.116Z,6.70
2019-05-05T17:13:03.109Z,5.80
2019-05-05T17:15:58.751Z,4.37
2019-05-05T17:18:47.759Z,4.40
2019-05-05T17:21:26.190Z,4.30
2019-05-05T17:23:57.159Z,3.73
2019-05-05T17:26:28.251Z,3.80
2019-05-05T17:28:59.366Z,3.30
2019-05-05T17:31:30.350Z,3.43
2019-05-05T17:34:01.455Z,3.20
2019-05-05T17:36:32.491Z,3.40
2019-05-05T17:39:05.332Z,4.13
2019-05-05T17:41:54.087Z,3.50
2019-05-05T17:44:38.538Z,3.00
2019-05-05T17:47:19.220Z,4.67
2019-05-05T17:49:57.818Z,4.00
2019-05-05T17:52:35.230Z,10.00
2019-05-05T17:55:24.262Z,3.80
2019-05-05T17:58:01.547Z,4.87
2019-05-05T18:00:30.312Z,5.20
2019-05-05T18:03:01.277Z,5.70
2019-05-05T18:06:09.469Z,6.13
2019-05-05T18:08:44.517Z,5.40
2019-05-05T18:11:25.391Z,5.90
2019-05-05T18:14:01.115Z,5.57
2019-05-05T18:16:33.863Z,5.53
2019-05-05T18:19:04.830Z,5.80
2019-05-05T18:21:35.828Z,6.27
2019-05-05T18:24:06.830Z,7.40
2019-05-05T18:26:37.852Z,7.70
2019-05-05T18:29:08.830Z,6.13
2019-05-05T18:31:39.794Z,5.80
2019-05-05T18:34:10.757Z,5.17
2019-05-05T18:36:41.751Z,5.67
2019-05-05T18:39:13.768Z,5.33
2019-05-05T18:41:50.514Z,6.87
2019-05-05T18:44:33.359Z,7.07
2019-05-05T18:47:18.773Z,7.53
2019-05-05T18:49:50.120Z,7.03
2019-05-05T18:52:21.104Z,7.40
2019-05-05T18:54:54.230Z,8.57
2019-05-05T18:57:24.853Z,9.70
2019-05-05T18:59:56.060Z,11.33
2019-05-05T19:02:40.109Z,7.90
2019-05-05T19:05:24.245Z,8.00
2019-05-05T19:08:07.720Z,8.23
2019-05-05T19:10:38.935Z,8.80
2019-05-05T19:13:10.002Z,7.77
2019-05-05T19:15:41.035Z,7.03
2019-05-05T19:18:14.065Z,10.67
2019-05-05T19:21:09.847Z,8.53
2019-05-05T19:23:41.296Z,7.93
2019-05-05T19:26:14.446Z,8.10
2019-05-05T19:28:49.906Z,8.93
2019-05-05T19:31:17.858Z,9.50
2019-05-05T19:33:48.906Z,11.77
2019-05-05T19:36:19.877Z,10.73
2019-05-05T19:38:50.870Z,10.53
2019-05-05T19:41:23.747Z,14.20
2019-05-05T19:43:55.125Z,12.10
2019-05-05T19:46:35.752Z,10.97
2019-05-05T19:49:19.357Z,16.13
2019-05-05T19:51:50.570Z,12.43
2019-05-05T19:54:21.610Z,12.47
2019-05-05T19:56:54.269Z,14.93
2019-05-05T19:59:25.506Z,14.07
2019-05-05T20:01:56.549Z,13.10
2019-05-05T20:04:27.604Z,14.23
2019-05-05T20:06:58.581Z,18.53
2019-05-05T20:09:29.696Z,14.87
2019-05-05T20:12:00.663Z,17.63
2019-05-05T20:14:33.979Z,20.53
2019-05-05T20:17:14.619Z,13.90
2019-05-05T20:19:46.161Z,20.10
2019-05-05T20:22:17.289Z,16.23
2019-05-05T20:24:48.267Z,14.47
2019-05-05T20:27:19.274Z,11.83
2019-05-05T20:29:50.327Z,12.10
2019-05-05T20:32:28.650Z,12.20
2019-05-05T20:35:08.641Z,14.87
2019-05-05T20:37:46.587Z,16.80
2019-05-05T20:40:19.739Z,15.60
2019-05-05T20:42:50.697Z,12.43
2019-05-05T20:45:24.947Z,12.43
2019-05-05T20:47:55.911Z,12.50
2019-05-05T20:50:26.901Z,12.60
2019-05-05T20:52:57.879Z,13.23
2019-05-05T20:55:28.916Z,17.57
2019-05-05T20:57:59.908Z,12.80
2019-05-05T21:00:31.029Z,17.27
2019-05-05T21:03:02.029Z,14.47
2019-05-05T21:05:34.347Z,17.33
2019-05-05T21:08:05.565Z,12.60
2019-05-05T21:10:37.782Z,14.00
2019-05-05T21:13:09.883Z,15.03
2019-05-05T21:15:41.080Z,13.53
2019-05-05T21:18:14.220Z,11.30
2019-05-05T21:20:44.791Z,13.90
2019-05-05T21:23:29.235Z,11.00
2019-05-05T21:26:11.341Z,14.33
2019-05-05T21:28:44.369Z,12.00
2019-05-05T21:31:14.985Z,14.23
2019-05-05T21:33:46.440Z,12.80
2019-05-05T21:36:17.541Z,12.07
2019-05-05T21:38:48.548Z,12.97
2019-05-05T21:41:19.506Z,14.23
2019-05-05T21:43:50.464Z,15.83
2019-05-05T21:46:21.440Z,12.63
2019-05-05T21:48:54.360Z,12.97
2019-05-05T21:51:34.866Z,11.73
2019-05-05T21:54:23.577Z,14.30
2019-05-05T21:57:10.255Z,10.80
2019-05-05T21:59:54.432Z,11.23
2019-05-05T22:02:15.305Z,9.63
2019-05-05T22:04:46.565Z,13.57
2019-05-05T22:07:17.624Z,10.37
2019-05-05T22:09:48.606Z,14.00
2019-05-05T22:12:19.593Z,10.17
2019-05-05T22:14:50.574Z,11.67
2019-05-05T22:17:22.784Z,9.87
2019-05-05T22:20:09.943Z,10.87
2019-05-05T22:22:45.032Z,10.60
2019-05-05T22:25:16.133Z,11.60
2019-05-05T22:27:47.123Z,11.87
2019-05-05T22:30:18.279Z,9.07
2019-05-05T22:32:49.317Z,10.50
2019-05-05T22:35:20.781Z,9.80
2019-05-05T22:37:51.766Z,10.60
2019-05-05T22:40:24.333Z,12.60
2019-05-05T22:42:55.615Z,11.13
2019-05-05T22:45:26.575Z,9.83
2019-05-05T22:47:57.566Z,10.63
2019-05-05T22:50:28.523Z,11.53
2019-05-05T22:52:59.601Z,12.03
2019-05-05T22:55:30.574Z,12.03
2019-05-05T22:58:03.836Z,15.13
2019-05-05T23:00:34.903Z,9.20
2019-05-05T23:03:13.693Z,10.10
2019-05-05T23:05:54.714Z,10.30
2019-05-05T23:08:25.883Z,10.23
2019-05-05T23:10:56.846Z,10.50
2019-05-05T23:13:27.843Z,10.70
2019-05-05T23:16:15.121Z,11.53
2019-05-05T23:18:46.191Z,11.30
2019-05-05T23:21:29.901Z,10.40
2019-05-05T23:24:18.654Z,11.03
2019-05-05T23:26:51.331Z,9.90
2019-05-05T23:29:24.217Z,11.07
2019-05-05T23:31:55.302Z,10.90
2019-05-05T23:34:26.372Z,9.97
2019-05-05T23:36:57.332Z,11.43
2019-05-05T23:39:28.475Z,13.73
2019-05-05T23:41:59.465Z,11.23
2019-05-05T23:44:30.445Z,13.80
2019-05-05T23:47:01.402Z,11.60
2019-05-05T23:49:32.409Z,10.90
2019-05-05T23:52:04.389Z,15.17
2019-05-05T23:54:35.450Z,12.70
2019-05-05T23:57:06.452Z,12.03
2019-05-05T23:59:37.469Z,13.20
